createdAt,value
2018-06-20T00:01:27.092Z,19.82
2018-06-20T00:03:55.268Z,17.77
2018-06-20T00:06:23.348Z,18.10
2018-06-20T00:08:52.837Z,17.52
2018-06-20T00:11:23.122Z,18.05
2018-06-20T00:13:51.571Z,17.90
2018-06-20T00:16:19.625Z,18.40
2018-06-20T00:18:47.784Z,19.12
2018-06-20T00:21:15.837Z,19.27
2018-06-20T00:23:43.928Z,20.00
2018-06-20T00:26:12.168Z,21.70
2018-06-20T00:28:40.727Z,20.88
2018-06-20T00:31:08.907Z,19.50
2018-06-20T00:33:37.088Z,20.97
2018-06-20T00:36:05.284Z,23.85
2018-06-20T00:38:33.868Z,21.75
2018-06-20T00:41:02.064Z,24.15
2018-06-20T00:43:30.124Z,21.60
2018-06-20T00:45:58.275Z,21.50
2018-06-20T00:48:26.375Z,22.23
2018-06-20T00:50:54.664Z,23.87
2018-06-20T00:53:22.735Z,24.05
2018-06-20T00:56:02.241Z,21.80
2018-06-20T00:58:30.405Z,19.77
2018-06-20T01:00:58.458Z,22.52
2018-06-20T01:03:26.487Z,22.70
2018-06-20T01:05:54.554Z,19.67
2018-06-20T01:08:22.608Z,19.85
2018-06-20T01:10:50.947Z,21.35
2018-06-20T01:13:18.983Z,19.67
2018-06-20T01:15:47.271Z,23.30
2018-06-20T01:18:15.378Z,23.35
2018-06-20T01:20:43.436Z,22.70
2018-06-20T01:23:11.499Z,22.25
2018-06-20T01:25:39.543Z,23.32
2018-06-20T01:28:07.699Z,23.47
2018-06-20T01:30:35.751Z,23.97
2018-06-20T01:33:03.787Z,27.67
2018-06-20T01:35:31.915Z,27.10
2018-06-20T01:37:59.943Z,27.50
2018-06-20T01:40:27.969Z,26.60
2018-06-20T01:42:56.004Z,23.57
2018-06-20T01:45:24.052Z,24.82
2018-06-20T01:47:52.295Z,26.47
2018-06-20T01:50:20.683Z,26.50
2018-06-20T01:52:48.723Z,26.10
2018-06-20T01:55:16.755Z,23.57
2018-06-20T01:57:44.948Z,25.50
2018-06-20T02:00:12.988Z,24.87
2018-06-20T02:02:41.051Z,24.77
2018-06-20T02:05:09.176Z,22.37
2018-06-20T02:07:37.295Z,23.70
2018-06-20T02:10:05.364Z,25.83
2018-06-20T02:12:33.470Z,24.67
2018-06-20T02:15:01.687Z,25.97
2018-06-20T02:17:29.734Z,25.10
2018-06-20T02:19:57.860Z,25.88
2018-06-20T02:22:25.888Z,22.75
2018-06-20T02:24:53.949Z,24.60
2018-06-20T02:27:22.024Z,23.92
2018-06-20T02:29:50.064Z,27.52
2018-06-20T02:32:18.111Z,25.77
2018-06-20T02:34:46.184Z,25.08
2018-06-20T02:37:14.236Z,25.45
2018-06-20T02:39:42.352Z,26.02
2018-06-20T02:42:10.456Z,27.20
2018-06-20T02:44:38.616Z,26.77
2018-06-20T02:47:07.054Z,25.92
2018-06-20T02:49:35.275Z,24.10
2018-06-20T02:52:03.371Z,26.43
2018-06-20T02:54:31.902Z,29.20
2018-06-20T02:57:00.193Z,27.45
2018-06-20T02:59:28.292Z,32.67
2018-06-20T03:01:56.547Z,28.30
2018-06-20T03:04:24.623Z,26.80
2018-06-20T03:06:52.672Z,27.40
2018-06-20T03:09:24.899Z,26.45
2018-06-20T03:11:53.265Z,25.87
2018-06-20T03:14:21.291Z,27.05
2018-06-20T03:16:49.332Z,26.25
2018-06-20T03:19:17.541Z,25.30
2018-06-20T03:21:45.579Z,25.70
2018-06-20T03:24:13.704Z,28.63
2018-06-20T03:26:42.019Z,28.07
2018-06-20T03:29:10.177Z,25.65
2018-06-20T03:31:38.331Z,30.30
2018-06-20T03:34:06.501Z,28.47
2018-06-20T03:36:34.601Z,25.95
2018-06-20T03:39:02.751Z,28.40
2018-06-20T03:41:30.903Z,28.57
2018-06-20T03:43:59.043Z,25.30
2018-06-20T03:46:27.071Z,29.55
2018-06-20T03:48:55.112Z,29.80
2018-06-20T03:51:23.176Z,27.05
2018-06-20T03:53:51.249Z,27.95
2018-06-20T03:56:19.268Z,28.27
2018-06-20T03:58:47.355Z,29.52
2018-06-20T04:01:15.403Z,29.18
2018-06-20T04:03:43.525Z,28.25
2018-06-20T04:06:11.583Z,27.00
2018-06-20T04:08:39.604Z,26.67
2018-06-20T04:11:07.646Z,27.13
2018-06-20T04:13:35.679Z,27.58
2018-06-20T04:16:03.812Z,28.47
2018-06-20T04:18:36.904Z,25.65
2018-06-20T04:21:04.932Z,28.00
2018-06-20T04:23:33.004Z,27.07
2018-06-20T04:26:01.060Z,32.45
2018-06-20T04:28:29.088Z,28.60
2018-06-20T04:30:57.432Z,27.67
2018-06-20T04:33:25.560Z,29.52
2018-06-20T04:35:53.607Z,30.00
2018-06-20T04:38:21.652Z,27.50
2018-06-20T04:40:49.667Z,26.57
2018-06-20T04:43:17.964Z,30.15
2018-06-20T04:45:46.000Z,28.77
2018-06-20T04:48:14.036Z,27.87
2018-06-20T04:50:42.242Z,27.67
2018-06-20T04:53:10.344Z,27.45
2018-06-20T04:55:38.731Z,29.35
2018-06-20T04:58:06.853Z,26.95
2018-06-20T05:00:35.012Z,28.55
2018-06-20T05:03:03.095Z,28.35
2018-06-20T05:05:31.157Z,30.23
2018-06-20T05:07:59.237Z,30.00
2018-06-20T05:10:27.703Z,27.73
2018-06-20T05:12:55.779Z,30.90
2018-06-20T05:15:23.826Z,32.93
2018-06-20T05:17:51.888Z,35.65
2018-06-20T05:20:19.921Z,32.90
2018-06-20T05:22:47.963Z,32.78
2018-06-20T05:25:16.303Z,31.20
2018-06-20T05:27:44.327Z,30.97
2018-06-20T05:30:12.352Z,30.25
2018-06-20T05:32:40.395Z,29.90
2018-06-20T05:35:08.448Z,29.80
2018-06-20T05:37:36.479Z,28.38
2018-06-20T05:40:04.991Z,27.73
2018-06-20T05:42:33.260Z,28.15
2018-06-20T05:45:01.508Z,29.87
2018-06-20T05:47:29.651Z,26.20
2018-06-20T05:49:57.719Z,25.23
2018-06-20T05:52:25.835Z,26.55
2018-06-20T05:54:53.892Z,26.23
2018-06-20T05:57:21.968Z,25.23
2018-06-20T05:59:50.040Z,26.25
2018-06-20T06:02:18.094Z,25.17
2018-06-20T06:04:46.154Z,26.10
2018-06-20T06:07:14.181Z,27.27
2018-06-20T06:09:42.217Z,25.30
2018-06-20T06:12:10.256Z,25.88
2018-06-20T06:14:38.276Z,23.80
2018-06-20T06:17:06.419Z,25.97
2018-06-20T06:19:34.450Z,22.17
2018-06-20T06:22:02.483Z,25.43
2018-06-20T06:24:30.553Z,26.15
2018-06-20T06:26:58.598Z,25.57
2018-06-20T06:29:26.703Z,29.00
2018-06-20T06:31:54.896Z,24.00
2018-06-20T06:34:22.952Z,24.77
2018-06-20T06:36:51.001Z,25.30
2018-06-20T06:39:19.040Z,23.65
2018-06-20T06:41:47.101Z,25.57
2018-06-20T06:44:15.152Z,25.70
2018-06-20T06:46:43.220Z,22.65
2018-06-20T06:49:11.335Z,21.75
2018-06-20T06:51:39.674Z,20.60
2018-06-20T06:54:07.889Z,21.42
2018-06-20T06:56:36.026Z,21.02
2018-06-20T06:59:04.264Z,20.90
2018-06-20T07:01:32.508Z,19.90
2018-06-20T07:04:00.637Z,21.00
2018-06-20T07:06:28.955Z,22.45
2018-06-20T07:08:57.112Z,36.03
2018-06-20T07:11:25.354Z,20.02
2018-06-20T07:13:53.412Z,20.00
2018-06-20T07:16:21.464Z,19.05
2018-06-20T07:18:49.508Z,20.50
2018-06-20T07:21:17.537Z,17.17
2018-06-20T07:23:45.580Z,17.90
2018-06-20T07:26:13.628Z,17.87
2018-06-20T07:28:41.867Z,19.70
2018-06-20T07:31:09.948Z,20.05
2018-06-20T07:33:37.975Z,19.48
2018-06-20T07:36:06.158Z,18.57
2018-06-20T07:38:34.116Z,17.00
2018-06-20T07:41:02.178Z,16.48
2018-06-20T07:43:30.226Z,19.25
2018-06-20T07:45:58.263Z,16.93
2018-06-20T07:48:26.331Z,18.77
2018-06-20T07:50:54.359Z,18.25
2018-06-20T07:53:22.399Z,17.02
2018-06-20T07:55:50.440Z,16.90
2018-06-20T07:58:23.764Z,17.15
2018-06-20T08:00:57.191Z,17.40
2018-06-20T08:03:30.584Z,16.32
2018-06-20T08:06:04.051Z,15.70
2018-06-20T08:08:37.384Z,16.85
2018-06-20T08:11:10.788Z,17.02
2018-06-20T08:13:44.165Z,16.77
2018-06-20T08:16:17.549Z,16.23
2018-06-20T08:18:51.030Z,15.75
2018-06-20T08:21:19.144Z,15.68
2018-06-20T08:23:47.158Z,15.28
2018-06-20T08:26:15.241Z,16.25
2018-06-20T08:28:43.288Z,14.35
2018-06-20T08:31:11.361Z,14.03
2018-06-20T08:33:39.448Z,12.98
2018-06-20T08:36:07.564Z,13.15
2018-06-20T08:38:35.596Z,13.03
2018-06-20T08:41:03.660Z,13.65
2018-06-20T08:43:31.676Z,12.40
2018-06-20T08:45:59.775Z,12.65
2018-06-20T08:48:27.839Z,10.68
2018-06-20T08:50:55.869Z,9.75
2018-06-20T08:53:23.895Z,13.50
2018-06-20T08:55:51.940Z,13.18
2018-06-20T08:58:20.056Z,10.80
2018-06-20T09:00:53.710Z,10.85
2018-06-20T09:03:22.823Z,10.10
2018-06-20T09:05:56.461Z,10.63
2018-06-20T09:08:29.897Z,9.85
2018-06-20T09:11:03.432Z,10.63
2018-06-20T09:13:36.762Z,10.63
2018-06-20T09:16:10.231Z,13.93
2018-06-20T09:18:43.767Z,14.25
2018-06-20T09:21:11.819Z,13.75
2018-06-20T09:23:39.863Z,12.40
2018-06-20T09:26:07.896Z,13.15
2018-06-20T09:28:35.947Z,13.08
2018-06-20T09:31:03.992Z,11.80
2018-06-20T09:33:32.044Z,13.05
2018-06-20T09:36:00.089Z,12.07
2018-06-20T09:38:28.139Z,11.73
2018-06-20T09:40:56.197Z,12.00
2018-06-20T09:43:24.243Z,11.65
2018-06-20T09:45:52.281Z,12.58
2018-06-20T09:48:20.616Z,14.47
2018-06-20T09:50:53.972Z,13.65
2018-06-20T09:53:22.072Z,14.25
2018-06-20T09:55:50.128Z,15.90
2018-06-20T09:58:18.164Z,14.95
2018-06-20T10:00:51.639Z,15.65
2018-06-20T10:03:25.378Z,13.40
2018-06-20T10:05:59.018Z,13.83
2018-06-20T10:08:32.560Z,13.30
2018-06-20T10:11:06.549Z,15.13
2018-06-20T10:13:49.996Z,20.82
2018-06-20T10:16:18.736Z,15.80
2018-06-20T10:18:46.792Z,14.90
2018-06-20T10:21:15.030Z,14.65
2018-06-20T10:23:44.378Z,14.53
2018-06-20T10:26:12.599Z,14.83
2018-06-20T10:28:41.123Z,13.00
2018-06-20T10:31:09.612Z,14.23
2018-06-20T10:33:37.750Z,14.40
2018-06-20T10:36:05.892Z,13.70
2018-06-20T10:38:34.051Z,14.43
2018-06-20T10:41:02.292Z,14.75
2018-06-20T10:43:30.372Z,14.65
2018-06-20T10:46:04.029Z,13.90
2018-06-20T10:48:32.111Z,13.10
2018-06-20T10:51:00.226Z,13.18
2018-06-20T10:53:28.372Z,13.83
2018-06-20T10:56:02.263Z,13.85
2018-06-20T10:58:35.814Z,12.63
2018-06-20T11:01:09.209Z,12.82
2018-06-20T11:03:42.600Z,13.50
2018-06-20T11:06:16.032Z,13.22
2018-06-20T11:08:49.988Z,15.93
2018-06-20T11:11:23.547Z,14.25
2018-06-20T11:13:51.653Z,12.93
2018-06-20T11:16:19.772Z,13.05
2018-06-20T11:18:51.645Z,13.85
2018-06-20T11:21:19.712Z,13.15
2018-06-20T11:23:47.961Z,14.20
2018-06-20T11:26:16.494Z,14.23
2018-06-20T11:28:44.560Z,15.45
2018-06-20T11:31:12.598Z,13.53
2018-06-20T11:33:40.678Z,13.78
2018-06-20T11:36:08.735Z,12.03
2018-06-20T11:38:36.767Z,13.78
2018-06-20T11:41:04.852Z,12.20
2018-06-20T11:43:32.940Z,11.48
2018-06-20T11:46:06.324Z,11.95
2018-06-20T11:48:34.391Z,12.23
2018-06-20T11:51:02.436Z,12.23
2018-06-20T11:53:30.506Z,12.55
2018-06-20T11:55:58.584Z,12.18
2018-06-20T11:58:31.961Z,12.85
2018-06-20T12:01:05.639Z,11.68
2018-06-20T12:03:39.174Z,12.10
2018-06-20T12:07:12.184Z,12.07
2018-06-20T12:09:45.567Z,12.75
2018-06-20T12:12:19.200Z,11.70
2018-06-20T12:14:52.718Z,11.60
2018-06-20T12:17:26.219Z,9.73
2018-06-20T12:19:59.755Z,9.83
2018-06-20T12:22:33.250Z,10.00
2018-06-20T12:25:06.667Z,9.68
2018-06-20T12:27:40.024Z,10.75
2018-06-20T12:30:13.471Z,10.93
2018-06-20T12:32:46.984Z,9.65
2018-06-20T12:35:20.458Z,11.10
2018-06-20T12:37:53.869Z,9.25
2018-06-20T12:40:27.069Z,10.15
2018-06-20T12:44:04.120Z,9.98
2018-06-20T12:46:38.402Z,11.95
2018-06-20T12:49:06.734Z,10.90
2018-06-20T12:51:34.780Z,9.45
2018-06-20T12:54:02.815Z,10.00
2018-06-20T12:56:30.872Z,10.18
2018-06-20T12:58:58.906Z,9.60
2018-06-20T13:01:26.944Z,9.73
2018-06-20T13:03:55.029Z,9.20
2018-06-20T13:06:23.215Z,10.88
2018-06-20T13:08:51.263Z,18.50
2018-06-20T13:11:19.469Z,11.00
2018-06-20T13:13:47.672Z,9.60
2018-06-20T13:16:15.808Z,53.63
2018-06-20T13:18:52.556Z,13.03
2018-06-20T13:21:20.644Z,8.83
2018-06-20T13:23:48.739Z,9.10
2018-06-20T13:26:16.823Z,7.58
2018-06-20T13:28:45.311Z,8.00
2018-06-20T13:31:18.838Z,8.23
2018-06-20T13:33:52.294Z,8.98
2018-06-20T13:36:25.837Z,8.23
2018-06-20T13:38:59.196Z,8.35
2018-06-20T13:41:32.731Z,10.03
2018-06-20T13:44:07.797Z,7.05
2018-06-20T13:46:41.605Z,6.10
2018-06-20T13:49:09.796Z,8.18
2018-06-20T13:51:37.953Z,6.58
2018-06-20T13:54:06.745Z,6.47
2018-06-20T13:56:35.168Z,5.33
2018-06-20T13:59:03.365Z,5.97
2018-06-20T14:01:31.903Z,5.45
2018-06-20T14:04:00.511Z,6.53
2018-06-20T14:06:28.597Z,5.85
2018-06-20T14:08:56.655Z,7.25
2018-06-20T14:11:24.765Z,5.28
2018-06-20T14:13:52.817Z,5.42
2018-06-20T14:16:20.873Z,5.80
2018-06-20T14:18:48.907Z,7.37
2018-06-20T14:21:22.315Z,5.25
2018-06-20T14:23:50.359Z,6.12
2018-06-20T14:26:18.392Z,5.75
2018-06-20T14:28:47.363Z,4.45
2018-06-20T14:31:20.880Z,3.77
2018-06-20T14:33:54.303Z,4.28
2018-06-20T14:36:27.806Z,4.37
2018-06-20T14:39:01.314Z,4.00
2018-06-20T14:41:29.456Z,5.70
2018-06-20T14:44:07.173Z,3.90
2018-06-20T14:46:35.439Z,5.42
2018-06-20T14:49:03.694Z,3.87
2018-06-20T14:51:32.109Z,3.67
2018-06-20T14:54:00.300Z,5.03
2018-06-20T14:56:28.376Z,5.65
2018-06-20T14:58:56.387Z,3.52
2018-06-20T15:01:24.450Z,3.70
2018-06-20T15:03:52.487Z,4.87
2018-06-20T15:06:20.511Z,5.00
2018-06-20T15:08:48.563Z,3.20
2018-06-20T15:11:16.620Z,4.00
2018-06-20T15:13:44.700Z,3.62
2018-06-20T15:16:18.268Z,3.30
2018-06-20T15:18:46.355Z,3.30
2018-06-20T15:21:14.440Z,3.92
2018-06-20T15:23:42.628Z,4.30
2018-06-20T15:26:16.035Z,3.85
2018-06-20T15:28:49.468Z,3.30
2018-06-20T15:31:22.889Z,2.83
2018-06-20T15:33:56.328Z,4.62
2018-06-20T15:36:29.786Z,4.55
2018-06-20T15:38:57.851Z,3.37
2018-06-20T15:41:25.999Z,3.85
2018-06-20T15:43:54.060Z,4.05
2018-06-20T15:46:22.112Z,4.70
2018-06-20T15:48:50.151Z,3.27
2018-06-20T15:51:18.220Z,4.47
2018-06-20T15:53:46.246Z,5.50
2018-06-20T15:56:14.316Z,3.33
2018-06-20T15:58:42.679Z,2.95
2018-06-20T16:01:10.804Z,3.50
2018-06-20T16:03:38.980Z,3.25
2018-06-20T16:06:07.288Z,4.65
2018-06-20T16:08:40.691Z,4.37
2018-06-20T16:11:08.820Z,4.60
2018-06-20T16:13:36.851Z,3.87
2018-06-20T16:16:04.983Z,4.70
2018-06-20T16:18:33.009Z,3.58
2018-06-20T16:21:06.488Z,4.05
2018-06-20T16:23:40.183Z,4.20
2018-06-20T16:26:13.713Z,4.05
2018-06-20T16:28:47.040Z,7.05
2018-06-20T16:31:15.100Z,4.00
2018-06-20T16:33:43.150Z,5.10
2018-06-20T16:36:11.227Z,5.58
2018-06-20T16:38:39.375Z,5.12
2018-06-20T16:41:07.435Z,4.65
2018-06-20T16:43:35.520Z,3.75
2018-06-20T16:46:03.590Z,5.00
2018-06-20T16:48:32.340Z,5.42
2018-06-20T16:51:00.612Z,4.17
2018-06-20T16:53:28.933Z,3.67
2018-06-20T16:55:56.978Z,6.37
2018-06-20T16:58:25.100Z,4.58
2018-06-20T17:00:57.481Z,3.55
2018-06-20T17:03:25.505Z,5.85
2018-06-20T17:05:53.528Z,4.97
2018-06-20T17:08:23.393Z,5.65
2018-06-20T17:10:51.410Z,3.70
2018-06-20T17:13:25.069Z,3.77
2018-06-20T17:15:58.520Z,3.27
2018-06-20T17:18:32.043Z,4.72
2018-06-20T17:21:05.497Z,3.67
2018-06-20T17:23:44.610Z,5.33
2018-06-20T17:26:12.812Z,4.22
2018-06-20T17:28:41.116Z,3.60
2018-06-20T17:31:09.280Z,6.22
2018-06-20T17:33:37.523Z,3.52
2018-06-20T17:36:05.983Z,4.03
2018-06-20T17:38:34.235Z,3.60
2018-06-20T17:41:02.755Z,4.08
2018-06-20T17:43:31.477Z,3.37
2018-06-20T17:45:59.510Z,3.67
2018-06-20T17:48:27.544Z,3.60
2018-06-20T17:50:55.659Z,3.40
2018-06-20T17:53:23.729Z,3.75
2018-06-20T17:55:51.787Z,4.42
2018-06-20T17:58:19.811Z,5.95
2018-06-20T18:00:53.260Z,5.05
2018-06-20T18:03:21.470Z,3.70
2018-06-20T18:05:55.311Z,3.98
2018-06-20T18:10:33.953Z,3.98
2018-06-20T18:13:02.981Z,3.60
2018-06-20T18:15:36.476Z,3.95
2018-06-20T18:18:04.761Z,5.00
2018-06-20T18:20:32.842Z,4.12
2018-06-20T18:23:01.151Z,3.87
2018-06-20T18:25:29.250Z,4.53
2018-06-20T18:27:57.308Z,4.05
2018-06-20T18:30:25.345Z,4.95
2018-06-20T18:32:53.367Z,5.00
2018-06-20T18:35:21.437Z,4.75
2018-06-20T18:37:49.567Z,4.58
2018-06-20T18:40:17.652Z,4.40
2018-06-20T18:42:45.720Z,4.40
2018-06-20T18:45:13.764Z,5.03
2018-06-20T18:47:47.061Z,5.28
2018-06-20T18:50:15.411Z,4.90
2018-06-20T18:52:43.449Z,5.10
2018-06-20T18:55:11.599Z,4.92
2018-06-20T18:58:44.484Z,5.33
2018-06-20T19:01:17.888Z,5.10
2018-06-20T19:03:51.377Z,5.70
2018-06-20T19:06:24.872Z,4.97
2018-06-20T19:08:55.274Z,5.65
2018-06-20T19:11:23.367Z,4.97
2018-06-20T19:13:51.503Z,4.83
2018-06-20T19:16:19.528Z,5.62
2018-06-20T19:18:47.560Z,5.17
2018-06-20T19:21:15.594Z,5.67
2018-06-20T19:23:43.646Z,5.22
2018-06-20T19:26:11.724Z,5.10
2018-06-20T19:28:39.769Z,5.12
2018-06-20T19:31:07.804Z,5.10
2018-06-20T19:33:35.982Z,5.42
2018-06-20T19:36:04.028Z,5.53
2018-06-20T19:38:32.092Z,5.42
2018-06-20T19:41:00.233Z,7.15
2018-06-20T19:43:28.277Z,5.25
2018-06-20T19:45:56.291Z,5.05
2018-06-20T19:48:24.312Z,5.20
2018-06-20T19:50:52.396Z,5.05
2018-06-20T19:53:20.454Z,4.53
2018-06-20T19:55:48.592Z,5.42
2018-06-20T19:58:17.056Z,4.85
2018-06-20T20:00:45.177Z,4.90
2018-06-20T20:03:13.221Z,4.72
2018-06-20T20:05:41.452Z,5.78
2018-06-20T20:08:09.551Z,5.78
2018-06-20T20:10:37.605Z,5.40
2018-06-20T20:13:05.746Z,4.97
2018-06-20T20:15:34.259Z,6.20
2018-06-20T20:18:03.161Z,4.50
2018-06-20T20:20:31.649Z,7.08
2018-06-20T20:22:59.803Z,6.37
2018-06-20T20:25:28.048Z,4.75
2018-06-20T20:27:56.161Z,4.10
2018-06-20T20:30:24.227Z,4.85
2018-06-20T20:32:52.303Z,4.85
2018-06-20T20:35:20.323Z,4.30
2018-06-20T20:37:48.375Z,4.60
2018-06-20T20:40:16.427Z,5.03
2018-06-20T20:42:44.567Z,4.90
2018-06-20T20:45:13.308Z,4.60
2018-06-20T20:47:41.424Z,6.75
2018-06-20T20:50:09.874Z,4.10
2018-06-20T20:52:38.684Z,3.80
2018-06-20T20:55:07.552Z,4.00
2018-06-20T20:57:36.143Z,4.30
2018-06-20T21:00:05.658Z,4.08
2018-06-20T21:02:34.135Z,6.00
2018-06-20T21:05:03.475Z,4.50
2018-06-20T21:07:31.721Z,4.92
2018-06-20T21:09:59.816Z,5.53
2018-06-20T21:12:27.892Z,3.92
2018-06-20T21:14:55.981Z,6.25
2018-06-20T21:17:24.038Z,4.28
2018-06-20T21:19:52.324Z,4.58
2018-06-20T21:22:20.736Z,3.92
2018-06-20T21:24:48.763Z,3.72
2018-06-20T21:27:17.263Z,3.67
2018-06-20T21:29:45.306Z,3.92
2018-06-20T21:32:13.585Z,3.95
2018-06-20T21:34:41.598Z,4.08
2018-06-20T21:37:09.716Z,5.90
2018-06-20T21:39:37.768Z,5.83
2018-06-20T21:42:05.983Z,4.37
2018-06-20T21:44:34.242Z,5.62
2018-06-20T21:47:02.935Z,4.17
2018-06-20T21:49:31.146Z,5.08
2018-06-20T21:51:59.220Z,4.45
2018-06-20T21:54:27.248Z,3.90
2018-06-20T21:56:55.388Z,5.47
2018-06-20T21:59:23.499Z,4.70
2018-06-20T22:01:51.591Z,4.67
2018-06-20T22:04:19.922Z,4.50
2018-06-20T22:06:47.960Z,4.67
2018-06-20T22:09:16.152Z,4.92
2018-06-20T22:11:44.444Z,5.08
2018-06-20T22:14:12.851Z,7.08
2018-06-20T22:16:41.204Z,7.12
2018-06-20T22:19:09.524Z,3.87
2018-06-20T22:21:37.828Z,4.28
2018-06-20T22:24:06.720Z,5.80
2018-06-20T22:26:35.492Z,5.87
2018-06-20T22:29:04.128Z,5.08
2018-06-20T22:31:33.050Z,4.42
2018-06-20T22:34:01.578Z,6.92
2018-06-20T22:36:29.808Z,4.87
2018-06-20T22:38:58.063Z,4.90
2018-06-20T22:41:26.123Z,4.45
2018-06-20T22:43:54.331Z,5.17
2018-06-20T22:46:22.353Z,6.97
2018-06-20T22:48:50.415Z,5.50
2018-06-20T22:51:18.591Z,5.80
2018-06-20T22:53:47.007Z,5.40
2018-06-20T22:56:15.192Z,5.78
2018-06-20T22:58:43.259Z,7.37
2018-06-20T23:01:11.304Z,6.35
2018-06-20T23:03:39.515Z,5.85
2018-06-20T23:06:07.864Z,6.28
2018-06-20T23:08:35.907Z,5.85
2018-06-20T23:11:03.952Z,6.03
2018-06-20T23:13:32.194Z,6.40
2018-06-20T23:16:00.241Z,8.05
2018-06-20T23:18:28.393Z,6.10
2018-06-20T23:20:56.627Z,6.25
2018-06-20T23:23:24.696Z,7.37
2018-06-20T23:25:52.760Z,10.32
2018-06-20T23:28:20.834Z,6.78
2018-06-20T23:30:48.852Z,9.55
2018-06-20T23:33:16.917Z,6.85
2018-06-20T23:35:45.192Z,9.53
2018-06-20T23:38:13.443Z,9.03
2018-06-20T23:40:41.747Z,7.42
2018-06-20T23:43:09.955Z,6.95
2018-06-20T23:45:38.699Z,6.73
2018-06-20T23:48:07.192Z,7.58
2018-06-20T23:50:35.411Z,7.20
2018-06-20T23:53:04.441Z,7.45
2018-06-20T23:55:33.275Z,8.00
2018-06-20T23:58:02.214Z,8.38
